createdAt,value
2023-01-19T00:00:58.145Z,15.98
2023-01-19T00:03:25.997Z,19.30
2023-01-19T00:05:54.541Z,15.73
2023-01-19T00:08:22.457Z,15.45
2023-01-19T00:10:52.123Z,17.73
2023-01-19T00:13:20.656Z,16.25
2023-01-19T00:15:50.041Z,15.93
2023-01-19T00:18:18.411Z,13.95
2023-01-19T00:20:46.420Z,14.15
2023-01-19T00:23:15.061Z,14.65
2023-01-19T00:25:43.861Z,19.80
2023-01-19T00:28:13.113Z,16.75
2023-01-19T00:30:41.469Z,16.50
2023-01-19T00:33:11.497Z,16.00
2023-01-19T00:35:40.348Z,13.68
2023-01-19T00:38:08.241Z,16.27
2023-01-19T00:40:36.131Z,13.70
2023-01-19T00:43:04.203Z,13.25
2023-01-19T00:45:32.415Z,15.32
2023-01-19T00:48:00.254Z,12.35
2023-01-19T00:50:31.160Z,15.80
2023-01-19T00:53:01.494Z,16.75
2023-01-19T00:55:29.942Z,13.75
2023-01-19T00:57:58.166Z,13.60
2023-01-19T01:00:26.642Z,15.70
2023-01-19T01:02:55.827Z,14.40
2023-01-19T01:05:23.799Z,16.17
2023-01-19T01:07:53.087Z,14.70
2023-01-19T01:10:22.669Z,15.02
2023-01-19T01:12:55.968Z,14.50
2023-01-19T01:15:27.824Z,12.90
2023-01-19T01:17:55.921Z,13.02
2023-01-19T01:20:25.503Z,12.40
2023-01-19T01:22:55.424Z,15.60
2023-01-19T01:25:25.006Z,11.70
2023-01-19T01:27:53.136Z,10.73
2023-01-19T01:30:21.761Z,14.05
2023-01-19T01:32:49.801Z,12.73
2023-01-19T01:35:18.152Z,15.30
2023-01-19T01:37:46.058Z,12.70
2023-01-19T01:40:17.862Z,10.60
2023-01-19T01:45:30.619Z,9.65
2023-01-19T01:48:01.599Z,13.60
2023-01-19T01:50:31.632Z,18.38
2023-01-19T01:53:07.090Z,18.08
2023-01-19T01:55:40.416Z,17.23
2023-01-19T01:58:09.832Z,14.77
2023-01-19T02:00:52.262Z,16.70
2023-01-19T02:03:20.282Z,15.00
2023-01-19T02:05:48.474Z,14.45
2023-01-19T02:08:37.269Z,13.48
2023-01-19T02:11:25.089Z,12.75
2023-01-19T02:13:53.135Z,15.15
2023-01-19T02:16:21.065Z,11.98
2023-01-19T02:18:49.504Z,15.75
2023-01-19T02:21:20.853Z,12.77
2023-01-19T02:23:52.551Z,14.52
2023-01-19T02:26:22.587Z,13.93
2023-01-19T02:28:53.571Z,16.63
2023-01-19T02:31:21.435Z,16.35
2023-01-19T02:33:49.227Z,17.48
2023-01-19T02:36:18.238Z,19.02
2023-01-19T02:38:47.552Z,17.70
2023-01-19T02:41:20.801Z,20.25
2023-01-19T02:43:49.791Z,15.68
2023-01-19T02:46:17.957Z,15.45
2023-01-19T02:48:45.748Z,15.65
2023-01-19T02:51:17.061Z,20.15
2023-01-19T02:54:04.733Z,21.45
2023-01-19T02:56:47.271Z,16.23
2023-01-19T02:59:24.518Z,15.57
2023-01-19T03:02:09.065Z,18.38
2023-01-19T03:04:46.130Z,13.20
2023-01-19T03:07:16.084Z,15.48
2023-01-19T03:09:51.127Z,19.52
2023-01-19T03:12:27.567Z,18.33
2023-01-19T03:14:59.744Z,14.15
2023-01-19T03:17:29.684Z,16.55
2023-01-19T03:19:59.066Z,16.40
2023-01-19T03:22:29.099Z,20.27
2023-01-19T03:25:01.497Z,16.15
2023-01-19T03:27:32.613Z,22.80
2023-01-19T03:30:02.791Z,11.67
2023-01-19T03:32:35.708Z,19.90
2023-01-19T03:35:05.647Z,18.50
2023-01-19T03:37:35.603Z,21.33
2023-01-19T03:40:03.441Z,19.25
2023-01-19T03:42:33.244Z,22.73
2023-01-19T03:45:01.735Z,21.58
2023-01-19T03:47:29.991Z,16.50
2023-01-19T03:49:58.472Z,17.73
2023-01-19T03:52:30.381Z,15.80
2023-01-19T03:54:58.482Z,26.75
2023-01-19T03:57:26.692Z,19.40
2023-01-19T03:59:55.995Z,19.80
2023-01-19T04:02:24.155Z,21.40
2023-01-19T04:04:52.348Z,18.27
2023-01-19T04:07:20.221Z,21.02
2023-01-19T04:09:48.487Z,20.33
2023-01-19T04:12:16.466Z,22.45
2023-01-19T04:14:44.241Z,19.45
2023-01-19T04:17:14.244Z,18.75
2023-01-19T04:19:42.427Z,23.65
2023-01-19T04:22:10.555Z,22.05
2023-01-19T04:24:38.340Z,23.90
2023-01-19T04:27:06.258Z,23.85
2023-01-19T04:29:34.065Z,18.98
2023-01-19T04:32:01.898Z,18.67
2023-01-19T04:34:31.172Z,21.02
2023-01-19T04:36:59.100Z,19.20
2023-01-19T04:39:27.666Z,20.77
2023-01-19T04:41:57.488Z,24.65
2023-01-19T04:44:25.386Z,24.77
2023-01-19T04:46:53.307Z,26.95
2023-01-19T04:49:21.163Z,24.40
2023-01-19T04:51:50.847Z,20.90
2023-01-19T04:54:18.901Z,24.85
2023-01-19T04:56:46.825Z,21.58
2023-01-19T04:59:14.684Z,27.15
2023-01-19T05:01:42.895Z,24.48
2023-01-19T05:04:11.030Z,21.20
2023-01-19T05:06:39.053Z,20.02
2023-01-19T05:09:09.171Z,19.77
2023-01-19T05:11:36.977Z,20.77
2023-01-19T05:14:04.827Z,23.13
2023-01-19T05:16:33.033Z,21.52
2023-01-19T05:19:00.974Z,25.13
2023-01-19T05:21:29.367Z,23.40
2023-01-19T05:23:57.103Z,20.92
2023-01-19T05:26:54.774Z,22.15
2023-01-19T05:29:22.718Z,22.05
2023-01-19T05:43:14.904Z,18.95
2023-01-19T05:45:43.514Z,18.70
2023-01-19T05:48:11.468Z,24.08
2023-01-19T05:50:39.463Z,23.30
2023-01-19T05:53:07.648Z,19.58
2023-01-19T05:55:36.593Z,18.85
2023-01-19T05:58:04.697Z,18.98
2023-01-19T06:00:34.033Z,22.75
2023-01-19T06:03:03.128Z,20.52
2023-01-19T06:05:31.410Z,22.73
2023-01-19T06:07:59.525Z,23.48
2023-01-19T06:10:27.452Z,19.48
2023-01-19T06:12:55.887Z,19.30
2023-01-19T06:15:23.960Z,21.77
2023-01-19T06:17:55.204Z,22.05
2023-01-19T06:20:23.048Z,22.02
2023-01-19T06:22:50.989Z,24.42
2023-01-19T06:25:18.862Z,21.63
2023-01-19T06:27:46.764Z,22.35
2023-01-19T06:30:15.516Z,17.33
2023-01-19T06:32:43.369Z,17.83
2023-01-19T06:35:12.769Z,23.63
2023-01-19T06:37:41.178Z,22.52
2023-01-19T06:40:10.402Z,17.98
2023-01-19T06:42:38.338Z,19.40
2023-01-19T06:45:07.148Z,20.20
2023-01-19T06:47:35.013Z,21.50
2023-01-19T06:50:03.555Z,24.35
2023-01-19T06:52:33.197Z,19.17
2023-01-19T06:55:01.357Z,23.17
2023-01-19T06:57:29.457Z,22.33
2023-01-19T07:00:00.871Z,22.80
2023-01-19T07:02:29.142Z,12.82
2023-01-19T07:04:57.283Z,22.48
2023-01-19T07:07:25.427Z,21.25
2023-01-19T07:09:55.259Z,17.77
2023-01-19T07:12:24.039Z,25.25
2023-01-19T07:14:52.859Z,21.17
2023-01-19T07:17:20.900Z,21.45
2023-01-19T07:23:36.123Z,18.98
2023-01-19T07:26:06.144Z,18.80
2023-01-19T07:28:34.540Z,19.90
2023-01-19T07:31:02.521Z,23.35
2023-01-19T07:33:30.661Z,19.50
2023-01-19T07:35:58.690Z,20.45
2023-01-19T07:38:26.826Z,18.25
2023-01-19T07:41:02.079Z,17.90
2023-01-19T07:43:32.078Z,17.65
2023-01-19T07:46:00.723Z,19.13
2023-01-19T07:48:29.344Z,19.00
2023-01-19T07:51:02.458Z,16.05
2023-01-19T07:53:30.710Z,22.85
2023-01-19T07:55:58.670Z,18.30
2023-01-19T07:58:27.177Z,20.33
2023-01-19T08:00:56.493Z,23.65
2023-01-19T08:03:24.860Z,26.75
2023-01-19T08:05:53.657Z,22.42
2023-01-19T08:08:22.063Z,22.40
2023-01-19T08:10:52.149Z,24.98
2023-01-19T08:13:20.171Z,19.90
2023-01-19T08:15:51.686Z,22.05
2023-01-19T08:18:21.483Z,28.40
2023-01-19T08:20:49.514Z,24.75
2023-01-19T08:23:18.345Z,30.77
2023-01-19T08:25:46.441Z,32.35
2023-01-19T08:28:15.881Z,23.20
2023-01-19T08:30:45.147Z,16.77
2023-01-19T08:33:13.977Z,22.25
2023-01-19T08:35:45.666Z,21.15
2023-01-19T08:38:13.816Z,22.73
2023-01-19T08:40:42.929Z,19.73
2023-01-19T08:43:12.889Z,23.70
2023-01-19T08:45:49.241Z,19.92
2023-01-19T08:48:18.469Z,21.95
2023-01-19T08:50:48.997Z,18.05
2023-01-19T08:53:18.094Z,16.70
2023-01-19T08:55:46.784Z,16.70
2023-01-19T08:58:14.910Z,21.40
2023-01-19T09:00:43.213Z,17.13
2023-01-19T09:03:13.532Z,24.10
2023-01-19T09:05:42.026Z,24.70
2023-01-19T09:08:14.212Z,20.80
2023-01-19T09:10:46.473Z,23.85
2023-01-19T09:13:14.847Z,16.67
2023-01-19T09:15:43.707Z,25.25
2023-01-19T09:18:13.878Z,19.92
2023-01-19T09:21:13.973Z,19.23
2023-01-19T09:23:43.877Z,20.13
2023-01-19T09:26:12.094Z,24.63
2023-01-19T09:28:40.157Z,20.77
2023-01-19T09:31:08.997Z,17.00
2023-01-19T09:33:37.315Z,15.30
2023-01-19T09:36:05.485Z,16.30
2023-01-19T09:38:34.099Z,15.10
2023-01-19T09:41:04.653Z,17.90
2023-01-19T09:43:39.143Z,16.10
2023-01-19T09:46:12.899Z,15.48
2023-01-19T09:48:45.933Z,17.05
2023-01-19T09:51:17.365Z,14.23
2023-01-19T09:53:57.150Z,16.42
2023-01-19T09:56:29.602Z,19.02
2023-01-19T09:58:58.327Z,18.90
2023-01-19T10:01:40.535Z,21.95
2023-01-19T10:04:30.799Z,19.50
2023-01-19T10:07:06.901Z,19.42
2023-01-19T10:09:40.987Z,19.50
2023-01-19T10:12:17.920Z,19.95
2023-01-19T10:14:51.291Z,18.10
2023-01-19T10:17:25.599Z,21.10
2023-01-19T10:19:57.876Z,21.85
2023-01-19T10:22:27.234Z,18.33
2023-01-19T10:24:57.402Z,13.73
2023-01-19T10:27:30.099Z,20.83
2023-01-19T10:29:58.772Z,19.48
2023-01-19T10:32:30.811Z,22.85
2023-01-19T10:37:31.973Z,17.15
2023-01-19T10:40:03.771Z,19.38
2023-01-19T10:42:33.547Z,15.25
2023-01-19T10:45:01.540Z,15.80
2023-01-19T10:47:33.493Z,15.43
2023-01-19T10:50:01.992Z,19.83
2023-01-19T10:52:32.816Z,14.88
2023-01-19T10:55:02.561Z,16.67
2023-01-19T10:57:34.555Z,15.55
2023-01-19T11:02:31.518Z,14.75
2023-01-19T11:05:01.444Z,15.60
2023-01-19T11:07:31.323Z,16.83
2023-01-19T11:10:22.703Z,16.90
2023-01-19T11:13:08.100Z,15.27
2023-01-19T11:15:42.736Z,16.20
2023-01-19T11:18:24.245Z,15.43
2023-01-19T11:20:54.894Z,14.30
2023-01-19T11:23:28.322Z,15.73
2023-01-19T11:26:00.858Z,16.55
2023-01-19T11:28:44.933Z,13.63
2023-01-19T11:31:21.974Z,16.63
2023-01-19T11:33:51.874Z,14.57
2023-01-19T11:36:22.065Z,12.60
2023-01-19T11:38:51.938Z,13.25
2023-01-19T11:41:23.323Z,11.63
2023-01-19T11:44:10.244Z,11.98
2023-01-19T11:47:29.274Z,12.25
2023-01-19T11:50:44.763Z,12.40
2023-01-19T12:01:08.230Z,10.82
2023-01-19T12:03:42.962Z,11.90
2023-01-19T12:06:13.715Z,10.98
2023-01-19T12:09:00.579Z,13.95
2023-01-19T12:12:03.101Z,10.85
2023-01-19T12:15:07.289Z,15.23
2023-01-19T12:21:48.518Z,10.15
2023-01-19T12:25:40.288Z,10.07
2023-01-19T12:28:14.267Z,10.70
2023-01-19T12:30:43.590Z,8.57
2023-01-19T12:33:35.878Z,9.32
2023-01-19T12:36:07.218Z,9.45
2023-01-19T12:38:56.965Z,9.70
2023-01-19T12:41:32.199Z,8.88
2023-01-19T12:44:19.329Z,9.73
2023-01-19T12:46:49.615Z,9.60
2023-01-19T12:49:26.896Z,9.10
2023-01-19T12:51:57.424Z,10.23
2023-01-19T12:54:31.754Z,9.27
2023-01-19T12:57:01.769Z,8.38
2023-01-19T12:59:30.221Z,10.32
2023-01-19T13:02:35.131Z,9.02
2023-01-19T13:05:19.911Z,11.13
2023-01-19T13:08:19.713Z,9.90
2023-01-19T13:11:18.149Z,8.90
2023-01-19T13:13:48.673Z,8.52
2023-01-19T13:16:57.620Z,7.60
2023-01-19T13:19:36.548Z,8.50
2023-01-19T13:22:53.282Z,8.18
2023-01-19T13:25:31.484Z,8.93
2023-01-19T13:28:01.333Z,8.93
2023-01-19T13:30:30.436Z,7.68
2023-01-19T13:33:11.604Z,8.30
2023-01-19T13:35:39.701Z,8.23
2023-01-19T13:38:08.693Z,8.75
2023-01-19T13:40:39.503Z,10.98
2023-01-19T13:43:16.936Z,9.55
2023-01-19T13:45:51.693Z,9.63
2023-01-19T13:48:24.225Z,9.35
2023-01-19T13:51:06.767Z,10.05
2023-01-19T13:53:35.552Z,9.48
2023-01-19T13:56:18.072Z,9.27
2023-01-19T14:03:20.443Z,9.15
2023-01-19T14:05:51.481Z,9.18
2023-01-19T14:08:26.725Z,9.45
2023-01-19T14:11:04.341Z,10.32
2023-01-19T14:20:30.679Z,10.18
2023-01-19T14:22:58.841Z,9.65
2023-01-19T14:25:30.952Z,9.20
2023-01-19T14:30:55.331Z,9.13
2023-01-19T14:33:43.774Z,10.43
2023-01-19T14:36:27.946Z,9.73
2023-01-19T14:38:57.650Z,13.73
2023-01-19T14:41:28.075Z,10.32
2023-01-19T14:43:57.098Z,9.95
2023-01-19T14:46:26.059Z,10.38
2023-01-19T14:49:01.975Z,10.60
2023-01-19T14:51:30.684Z,10.18
2023-01-19T14:54:00.806Z,11.00
2023-01-19T14:56:30.408Z,11.38
2023-01-19T14:58:59.875Z,13.65
2023-01-19T15:01:31.252Z,11.70
2023-01-19T15:04:00.981Z,9.90
2023-01-19T15:06:29.264Z,10.60
2023-01-19T15:08:57.204Z,10.63
2023-01-19T15:11:27.654Z,11.82
2023-01-19T15:13:55.628Z,10.48
2023-01-19T15:16:24.302Z,10.45
2023-01-19T15:18:52.261Z,11.73
2023-01-19T15:21:23.779Z,15.63
2023-01-19T15:23:51.775Z,12.25
2023-01-19T15:26:22.174Z,10.77
2023-01-19T15:28:50.806Z,13.48
2023-01-19T15:31:20.547Z,9.93
2023-01-19T15:33:48.761Z,10.48
2023-01-19T15:36:18.395Z,10.23
2023-01-19T15:38:50.345Z,9.73
2023-01-19T15:41:23.586Z,10.63
2023-01-19T15:43:52.085Z,20.75
2023-01-19T15:46:20.885Z,9.35
2023-01-19T15:48:49.432Z,11.80
2023-01-19T15:51:19.218Z,9.32
2023-01-19T15:53:48.962Z,9.43
2023-01-19T15:56:17.541Z,9.75
2023-01-19T15:58:47.092Z,8.57
2023-01-19T16:01:16.152Z,9.88
2023-01-19T16:03:44.552Z,10.23
2023-01-19T16:06:12.863Z,12.57
2023-01-19T16:08:41.834Z,9.80
2023-01-19T16:11:12.465Z,10.27
2023-01-19T16:13:40.558Z,13.95
2023-01-19T16:16:10.160Z,9.90
2023-01-19T16:18:38.004Z,11.55
2023-01-19T16:21:06.590Z,12.00
2023-01-19T16:23:34.459Z,14.85
2023-01-19T16:26:05.116Z,10.57
2023-01-19T16:28:35.073Z,13.02
2023-01-19T16:31:03.153Z,10.25
2023-01-19T16:33:31.162Z,12.13
2023-01-19T16:35:58.929Z,9.23
2023-01-19T16:38:27.064Z,10.30
2023-01-19T16:40:54.856Z,10.85
2023-01-19T16:43:22.852Z,9.95
2023-01-19T16:45:59.786Z,9.48
2023-01-19T16:48:28.525Z,12.80
2023-01-19T16:51:01.431Z,15.43
2023-01-19T16:53:30.156Z,12.15
2023-01-19T16:55:58.713Z,11.05
2023-01-19T16:58:26.943Z,10.75
2023-01-19T17:00:55.860Z,12.90
2023-01-19T17:03:27.145Z,12.38
2023-01-19T17:05:55.251Z,11.43
2023-01-19T17:08:23.308Z,10.65
2023-01-19T17:10:51.162Z,9.10
2023-01-19T17:13:19.358Z,10.55
2023-01-19T17:15:47.368Z,16.38
2023-01-19T17:18:15.282Z,9.38
2023-01-19T17:20:45.099Z,12.90
2023-01-19T17:23:13.025Z,11.32
2023-01-19T17:25:40.909Z,15.35
2023-01-19T17:28:09.695Z,28.90
2023-01-19T17:30:38.020Z,32.50
2023-01-19T17:41:20.575Z,11.75
2023-01-19T17:44:28.132Z,15.50
2023-01-19T21:06:09.221Z,16.98
2023-01-19T21:08:37.234Z,16.90
2023-01-19T21:11:05.493Z,19.38
2023-01-19T21:13:33.304Z,12.82
2023-01-19T21:16:00.964Z,13.30
2023-01-19T21:18:28.627Z,21.55
2023-01-19T21:20:57.445Z,13.45
2023-01-19T21:23:26.856Z,14.45
2023-01-19T21:25:56.082Z,11.23
2023-01-19T21:28:24.233Z,14.23
2023-01-19T21:30:52.554Z,16.45
2023-01-19T21:33:20.701Z,13.98
2023-01-19T21:35:51.948Z,17.23
2023-01-19T21:38:19.597Z,16.45
2023-01-19T21:40:48.652Z,13.10
2023-01-19T21:43:16.208Z,17.42
2023-01-19T21:45:44.703Z,11.45
2023-01-19T21:48:12.285Z,11.45
2023-01-19T21:50:39.964Z,12.82
2023-01-19T21:53:11.066Z,11.48
2023-01-19T21:55:38.870Z,12.47
2023-01-19T21:58:07.802Z,13.10
2023-01-19T22:00:35.358Z,13.82
2023-01-19T22:03:04.522Z,17.23
2023-01-19T22:05:36.837Z,11.60
2023-01-19T22:08:05.151Z,14.52
2023-01-19T22:10:32.822Z,13.80
2023-01-19T22:13:00.445Z,15.23
2023-01-19T22:15:30.518Z,13.52
2023-01-19T22:17:58.139Z,11.50
2023-01-19T22:20:25.723Z,15.20
2023-01-19T22:22:53.308Z,13.75
2023-01-19T22:25:23.831Z,14.27
2023-01-19T22:27:51.430Z,18.55
2023-01-19T22:30:19.657Z,14.82
2023-01-19T22:32:48.668Z,15.57
2023-01-19T22:35:16.415Z,19.42
2023-01-19T22:37:43.994Z,18.08
2023-01-19T22:40:12.888Z,26.30
2023-01-19T22:42:40.490Z,20.45
2023-01-19T22:45:09.428Z,22.13
2023-01-19T22:47:37.000Z,18.85
2023-01-19T22:50:06.993Z,16.00
2023-01-19T22:52:34.559Z,21.42
2023-01-19T22:55:02.183Z,17.83
2023-01-19T22:57:34.264Z,15.55
2023-01-19T23:00:01.918Z,14.43
2023-01-19T23:02:29.476Z,14.35
2023-01-19T23:04:57.092Z,16.05
2023-01-19T23:07:26.045Z,14.60
2023-01-19T23:09:53.634Z,10.35
2023-01-19T23:12:21.217Z,17.08
2023-01-19T23:14:48.781Z,14.98
2023-01-19T23:17:16.379Z,15.60
2023-01-19T23:19:43.945Z,14.20
2023-01-19T23:22:11.612Z,10.73
2023-01-19T23:24:40.795Z,14.02
2023-01-19T23:27:08.376Z,10.65
2023-01-19T23:29:36.287Z,11.48
2023-01-19T23:32:04.009Z,13.77
2023-01-19T23:34:31.830Z,12.15
2023-01-19T23:36:59.440Z,12.73
2023-01-19T23:39:27.023Z,13.23
2023-01-19T23:41:55.957Z,12.80
2023-01-19T23:44:23.581Z,12.70
2023-01-19T23:46:51.351Z,11.05
2023-01-19T23:49:18.909Z,13.35
2023-01-19T23:51:46.491Z,8.77
2023-01-19T23:54:14.115Z,10.23
2023-01-19T23:56:42.573Z,11.52
2023-01-19T23:59:12.840Z,9.55
